createdAt,value
2023-10-30T00:01:21.045Z,0.70
2023-10-30T00:03:49.176Z,1.35
2023-10-30T00:06:16.889Z,0.75
2023-10-30T00:08:44.704Z,0.77
2023-10-30T00:11:12.371Z,0.80
2023-10-30T00:13:39.766Z,0.80
2023-10-30T00:16:07.300Z,0.73
2023-10-30T00:18:35.924Z,0.80
2023-10-30T00:21:03.521Z,0.85
2023-10-30T00:23:30.914Z,1.00
2023-10-30T00:25:58.850Z,1.20
2023-10-30T00:28:28.638Z,1.00
2023-10-30T00:30:55.994Z,1.12
2023-10-30T00:33:23.883Z,1.00
2023-10-30T00:35:51.325Z,0.90
2023-10-30T00:38:18.770Z,0.90
2023-10-30T00:40:46.583Z,0.65
2023-10-30T00:43:14.202Z,0.90
2023-10-30T00:45:41.967Z,0.88
2023-10-30T00:48:09.944Z,0.60
2023-10-30T00:50:37.422Z,0.80
2023-10-30T00:53:05.116Z,1.15
2023-10-30T00:55:37.109Z,1.00
2023-10-30T00:58:08.500Z,1.10
2023-10-30T01:00:36.350Z,0.93
2023-10-30T01:03:03.991Z,0.95
2023-10-30T01:05:31.482Z,0.68
2023-10-30T01:07:59.148Z,0.80
2023-10-30T01:10:26.545Z,0.80
2023-10-30T01:12:53.987Z,0.90
2023-10-30T01:15:22.849Z,0.90
2023-10-30T01:17:50.246Z,0.65
2023-10-30T01:20:17.764Z,1.62
2023-10-30T01:22:45.406Z,0.70
2023-10-30T01:25:13.021Z,0.70
2023-10-30T01:27:40.547Z,0.90
2023-10-30T01:30:08.642Z,0.77
2023-10-30T01:32:36.106Z,0.75
2023-10-30T01:35:03.693Z,1.12
2023-10-30T01:37:32.052Z,1.05
2023-10-30T01:39:59.466Z,0.80
2023-10-30T01:42:26.864Z,0.82
2023-10-30T01:44:56.361Z,0.77
2023-10-30T01:47:24.794Z,0.75
2023-10-30T01:49:56.676Z,0.95
2023-10-30T01:54:52.998Z,1.02
2023-10-30T01:57:23.274Z,0.80
2023-10-30T01:59:51.952Z,0.70
2023-10-30T02:02:20.348Z,0.62
2023-10-30T02:04:48.778Z,0.52
2023-10-30T02:07:18.685Z,0.60
2023-10-30T02:09:48.899Z,0.70
2023-10-30T02:12:16.646Z,0.70
2023-10-30T02:14:44.405Z,0.70
2023-10-30T02:17:12.019Z,0.88
2023-10-30T02:19:39.462Z,0.80
2023-10-30T02:22:07.197Z,0.70
2023-10-30T02:24:34.937Z,1.17
2023-10-30T02:27:02.947Z,0.90
2023-10-30T02:29:30.582Z,0.60
2023-10-30T02:31:57.967Z,0.85
2023-10-30T02:34:25.496Z,0.90
2023-10-30T02:36:55.282Z,0.80
2023-10-30T02:39:22.785Z,1.10
2023-10-30T02:41:50.273Z,0.70
2023-10-30T02:44:18.932Z,0.80
2023-10-30T02:46:46.309Z,0.90
2023-10-30T02:49:13.723Z,0.82
2023-10-30T02:51:41.433Z,0.65
2023-10-30T02:54:08.967Z,1.00
2023-10-30T02:56:36.365Z,1.10
2023-10-30T02:59:04.043Z,0.90
2023-10-30T03:01:31.501Z,1.50
2023-10-30T03:03:59.000Z,1.12
2023-10-30T03:06:26.884Z,1.00
2023-10-30T03:08:54.274Z,0.98
2023-10-30T03:11:21.668Z,1.10
2023-10-30T03:13:49.323Z,1.15
2023-10-30T03:16:19.094Z,0.88
2023-10-30T03:18:46.737Z,0.70
2023-10-30T03:21:14.556Z,0.90
2023-10-30T03:23:42.147Z,0.93
2023-10-30T03:26:10.412Z,0.70
2023-10-30T03:28:38.054Z,0.93
2023-10-30T03:31:07.037Z,0.80
2023-10-30T03:33:34.521Z,1.15
2023-10-30T03:36:03.230Z,0.80
2023-10-30T03:38:31.055Z,0.77
2023-10-30T03:40:58.663Z,0.82
2023-10-30T03:43:26.452Z,0.50
2023-10-30T03:45:54.136Z,0.77
2023-10-30T03:48:21.595Z,0.80
2023-10-30T03:50:50.719Z,0.70
2023-10-30T03:53:18.200Z,0.70
2023-10-30T03:55:45.560Z,0.98
2023-10-30T03:58:13.509Z,0.95
2023-10-30T04:00:40.934Z,0.80
2023-10-30T04:03:09.384Z,0.60
2023-10-30T04:05:36.862Z,0.90
2023-10-30T04:08:04.488Z,0.77
2023-10-30T04:10:32.272Z,0.77
2023-10-30T04:12:59.679Z,0.80
2023-10-30T04:15:27.065Z,0.60
2023-10-30T04:17:57.216Z,0.70
2023-10-30T04:20:24.763Z,0.65
2023-10-30T04:22:52.151Z,0.80
2023-10-30T04:25:20.324Z,0.90
2023-10-30T04:27:47.838Z,0.68
2023-10-30T04:30:15.450Z,0.73
2023-10-30T04:32:43.244Z,0.68
2023-10-30T04:35:10.643Z,0.88
2023-10-30T04:37:38.047Z,0.75
2023-10-30T04:40:06.569Z,0.90
2023-10-30T04:42:34.050Z,0.65
2023-10-30T04:45:01.463Z,0.70
2023-10-30T04:47:29.272Z,0.80
2023-10-30T04:49:56.698Z,0.90
2023-10-30T04:52:25.870Z,0.80
2023-10-30T04:54:53.601Z,0.60
2023-10-30T04:57:21.012Z,0.70
2023-10-30T04:59:48.640Z,0.73
2023-10-30T05:02:16.470Z,0.85
2023-10-30T05:04:43.865Z,0.45
2023-10-30T05:07:11.550Z,0.65
2023-10-30T05:09:39.240Z,0.68
2023-10-30T05:12:06.743Z,0.85
2023-10-30T05:14:34.200Z,0.80
2023-10-30T05:17:01.852Z,1.00
2023-10-30T05:19:30.358Z,0.80
2023-10-30T05:21:57.784Z,0.75
2023-10-30T05:24:25.788Z,0.82
2023-10-30T05:26:53.750Z,0.73
2023-10-30T05:29:21.179Z,0.70
2023-10-30T05:31:49.203Z,0.90
2023-10-30T05:34:16.678Z,0.65
2023-10-30T05:36:44.330Z,0.70
2023-10-30T05:39:12.041Z,0.90
2023-10-30T05:41:39.489Z,0.90
2023-10-30T05:44:06.905Z,1.08
2023-10-30T05:46:34.800Z,0.70
2023-10-30T05:49:02.222Z,1.62
2023-10-30T05:51:29.652Z,1.17
2023-10-30T05:53:57.343Z,1.00
2023-10-30T05:56:25.064Z,1.10
2023-10-30T05:58:52.418Z,1.27
2023-10-30T06:01:20.104Z,0.80
2023-10-30T06:03:47.848Z,1.02
2023-10-30T06:06:15.358Z,0.98
2023-10-30T06:08:42.796Z,1.20
2023-10-30T06:11:11.660Z,2.70
2023-10-30T06:13:39.043Z,1.30
2023-10-30T06:16:06.581Z,1.55
2023-10-30T06:18:34.273Z,1.40
2023-10-30T06:21:03.027Z,0.98
2023-10-30T06:23:30.481Z,1.08
2023-10-30T06:25:58.170Z,0.88
2023-10-30T06:28:25.610Z,1.27
2023-10-30T06:30:53.310Z,1.35
2023-10-30T06:33:21.076Z,1.42
2023-10-30T06:35:56.703Z,0.88
2023-10-30T06:38:24.374Z,1.02
2023-10-30T06:40:51.818Z,0.90
2023-10-30T06:43:19.188Z,0.80
2023-10-30T06:45:46.900Z,0.80
2023-10-30T06:48:14.305Z,0.82
2023-10-30T06:50:41.708Z,1.00
2023-10-30T06:53:09.391Z,1.02
2023-10-30T06:55:40.174Z,0.90
2023-10-30T06:58:07.560Z,0.82
2023-10-30T07:00:35.311Z,1.10
2023-10-30T07:03:02.837Z,0.77
2023-10-30T07:05:30.367Z,0.70
2023-10-30T07:07:58.075Z,0.80
2023-10-30T07:10:25.526Z,1.02
2023-10-30T07:12:52.930Z,0.90
2023-10-30T07:15:21.675Z,0.88
2023-10-30T07:17:49.355Z,1.05
2023-10-30T07:20:16.794Z,1.00
2023-10-30T07:22:44.480Z,1.15
2023-10-30T07:25:12.372Z,1.00
2023-10-30T07:27:39.804Z,1.10
2023-10-30T07:30:09.529Z,1.10
2023-10-30T07:32:36.965Z,0.80
2023-10-30T07:35:06.178Z,0.93
2023-10-30T07:37:37.115Z,1.00
2023-10-30T07:40:05.133Z,1.10
2023-10-30T07:42:33.091Z,1.00
2023-10-30T07:45:00.937Z,1.10
2023-10-30T07:47:42.816Z,1.50
2023-10-30T07:50:12.208Z,1.10
2023-10-30T07:52:42.811Z,0.95
2023-10-30T07:55:11.384Z,1.12
2023-10-30T07:57:39.078Z,1.37
2023-10-30T08:00:08.613Z,0.90
2023-10-30T08:02:40.561Z,1.00
2023-10-30T08:05:08.762Z,0.93
2023-10-30T08:07:37.234Z,1.10
2023-10-30T08:10:05.112Z,0.60
2023-10-30T08:12:32.903Z,0.73
2023-10-30T08:15:01.071Z,1.02
2023-10-30T08:17:28.837Z,1.05
2023-10-30T08:19:56.512Z,1.05
2023-10-30T08:22:23.910Z,0.95
2023-10-30T08:24:52.506Z,0.85
2023-10-30T08:27:20.268Z,0.82
2023-10-30T08:29:47.892Z,0.75
2023-10-30T08:32:15.450Z,0.88
2023-10-30T08:34:43.244Z,1.10
2023-10-30T08:37:10.668Z,0.70
2023-10-30T08:39:38.431Z,0.80
2023-10-30T08:42:06.263Z,0.77
2023-10-30T08:44:36.404Z,1.00
2023-10-30T08:47:03.786Z,1.10
2023-10-30T08:49:33.417Z,1.00
2023-10-30T08:52:04.499Z,0.95
2023-10-30T08:54:32.780Z,0.68
2023-10-30T08:59:30.532Z,1.10
2023-10-30T09:01:59.196Z,0.93
2023-10-30T09:04:27.024Z,0.80
2023-10-30T09:06:54.541Z,1.02
2023-10-30T09:09:22.296Z,1.23
2023-10-30T09:11:50.258Z,1.30
2023-10-30T09:14:17.672Z,1.30
2023-10-30T09:16:45.560Z,1.60
2023-10-30T09:19:12.953Z,1.33
2023-10-30T09:21:40.673Z,1.02
2023-10-30T09:24:08.868Z,1.08
2023-10-30T09:26:36.552Z,0.95
2023-10-30T09:29:04.617Z,1.30
2023-10-30T09:31:34.238Z,0.80
2023-10-30T09:34:01.854Z,1.35
2023-10-30T09:36:29.233Z,0.90
2023-10-30T09:38:57.035Z,0.75
2023-10-30T09:41:27.969Z,0.77
2023-10-30T09:43:55.570Z,0.68
2023-10-30T09:46:29.836Z,0.90
2023-10-30T09:48:59.167Z,1.00
2023-10-30T09:51:27.612Z,1.15
2023-10-30T09:53:56.051Z,0.60
2023-10-30T09:56:23.707Z,1.10
2023-10-30T09:58:52.441Z,0.88
2023-10-30T10:01:20.778Z,1.02
2023-10-30T10:03:49.228Z,1.05
2023-10-30T10:06:17.898Z,0.95
2023-10-30T10:08:45.534Z,0.82
2023-10-30T10:11:13.280Z,1.00
2023-10-30T10:13:57.997Z,1.12
2023-10-30T10:16:32.315Z,1.45
2023-10-30T10:19:00.156Z,0.80
2023-10-30T10:21:27.993Z,0.73
2023-10-30T10:23:55.882Z,0.60
2023-10-30T10:26:30.809Z,0.80
2023-10-30T10:28:59.754Z,0.77
2023-10-30T10:31:27.903Z,1.00
2023-10-30T10:33:57.742Z,1.37
2023-10-30T10:36:31.654Z,0.95
2023-10-30T10:39:00.081Z,0.77
2023-10-30T10:41:30.398Z,0.85
2023-10-30T10:44:00.242Z,0.75
2023-10-30T10:46:27.995Z,0.88
2023-10-30T10:48:56.063Z,1.17
2023-10-30T10:51:33.869Z,0.90
2023-10-30T10:54:08.251Z,0.90
2023-10-30T10:56:38.351Z,0.88
2023-10-30T10:59:09.593Z,1.00
2023-10-30T11:01:39.605Z,0.68
2023-10-30T11:04:09.572Z,0.73
2023-10-30T11:06:38.938Z,0.80
2023-10-30T11:09:15.943Z,0.85
2023-10-30T11:11:52.635Z,0.75
2023-10-30T11:14:31.425Z,0.77
2023-10-30T11:17:03.298Z,1.30
2023-10-30T11:19:32.515Z,1.10
2023-10-30T11:22:03.072Z,0.73
2023-10-30T11:24:42.017Z,0.70
2023-10-30T11:27:27.983Z,0.93
2023-10-30T11:29:57.469Z,1.23
2023-10-30T11:32:26.295Z,0.77
2023-10-30T11:34:53.707Z,0.75
2023-10-30T11:37:24.478Z,1.12
2023-10-30T11:39:54.868Z,0.80
2023-10-30T11:42:25.633Z,0.62
2023-10-30T11:44:54.374Z,1.10
2023-10-30T11:47:25.342Z,0.70
2023-10-30T11:49:56.789Z,1.30
2023-10-30T11:52:24.360Z,1.00
2023-10-30T11:54:52.151Z,0.73
2023-10-30T11:57:23.799Z,0.88
2023-10-30T11:59:51.452Z,0.90
2023-10-30T12:02:19.076Z,0.75
2023-10-30T12:04:46.804Z,1.05
2023-10-30T12:07:17.085Z,0.93
2023-10-30T12:09:44.490Z,0.60
2023-10-30T12:12:12.323Z,1.23
2023-10-30T12:14:39.777Z,0.60
2023-10-30T12:17:07.744Z,1.00
2023-10-30T12:19:36.589Z,1.10
2023-10-30T12:22:04.286Z,0.80
2023-10-30T12:24:31.990Z,1.10
2023-10-30T12:26:59.710Z,0.90
2023-10-30T12:29:27.258Z,0.70
2023-10-30T12:32:00.659Z,0.80
2023-10-30T12:34:28.734Z,0.60
2023-10-30T12:36:56.211Z,1.05
2023-10-30T12:39:25.750Z,0.98
2023-10-30T12:41:55.193Z,0.70
2023-10-30T12:44:25.178Z,0.95
2023-10-30T12:46:52.952Z,0.80
2023-10-30T12:49:20.452Z,0.85
2023-10-30T12:51:47.839Z,0.80
2023-10-30T12:54:15.551Z,1.10
2023-10-30T12:56:42.946Z,0.90
2023-10-30T12:59:10.329Z,0.70
2023-10-30T13:01:44.970Z,0.82
2023-10-30T13:04:27.790Z,0.95
2023-10-30T13:09:25.237Z,0.90
2023-10-30T13:11:53.278Z,1.00
2023-10-30T13:14:21.007Z,0.60
2023-10-30T13:16:49.193Z,0.88
2023-10-30T13:19:16.669Z,0.80
2023-10-30T13:21:45.523Z,0.98
2023-10-30T13:24:13.332Z,0.93
2023-10-30T13:26:40.757Z,0.98
2023-10-30T13:29:08.632Z,0.90
2023-10-30T13:31:36.035Z,0.90
2023-10-30T13:34:04.357Z,1.20
2023-10-30T13:36:32.173Z,0.95
2023-10-30T13:38:59.701Z,0.90
2023-10-30T13:41:27.113Z,0.80
2023-10-30T13:43:55.090Z,0.77
2023-10-30T13:46:23.137Z,1.60
2023-10-30T13:48:50.653Z,1.02
2023-10-30T13:51:18.325Z,1.05
2023-10-30T13:53:45.716Z,1.30
2023-10-30T13:56:13.322Z,1.30
2023-10-30T13:58:40.982Z,0.93
2023-10-30T14:01:09.332Z,1.12
2023-10-30T14:03:37.238Z,0.75
2023-10-30T14:06:05.199Z,0.62
2023-10-30T14:08:32.723Z,0.82
2023-10-30T14:11:00.440Z,0.95
2023-10-30T14:13:27.824Z,1.10
2023-10-30T14:15:55.297Z,0.90
2023-10-30T14:18:23.134Z,0.90
2023-10-30T14:20:50.538Z,1.12
2023-10-30T14:23:18.232Z,1.20
2023-10-30T14:25:46.023Z,1.20
2023-10-30T14:28:13.411Z,1.25
2023-10-30T14:30:40.796Z,0.90
2023-10-30T14:33:12.098Z,0.90
2023-10-30T14:35:39.560Z,1.33
2023-10-30T14:38:06.928Z,1.58
2023-10-30T14:40:34.599Z,1.25
2023-10-30T14:43:02.015Z,1.50
2023-10-30T14:45:29.502Z,1.12
2023-10-30T14:47:57.280Z,1.10
2023-10-30T14:50:24.678Z,1.15
2023-10-30T14:52:52.656Z,1.00
2023-10-30T14:55:20.295Z,1.00
2023-10-30T14:57:47.765Z,1.42
2023-10-30T15:00:15.471Z,1.30
2023-10-30T15:02:44.465Z,1.33
2023-10-30T15:05:13.974Z,1.23
2023-10-30T15:07:41.504Z,1.25
2023-10-30T15:10:09.530Z,1.15
2023-10-30T15:12:37.014Z,1.50
2023-10-30T15:15:05.584Z,1.55
2023-10-30T15:17:36.532Z,1.40
2023-10-30T15:20:05.645Z,1.65
2023-10-30T15:22:33.404Z,1.80
2023-10-30T15:25:00.896Z,2.97
2023-10-30T15:27:30.204Z,4.65
2023-10-30T15:29:58.576Z,4.72
2023-10-30T15:32:26.035Z,4.45
2023-10-30T15:34:54.038Z,6.30
2023-10-30T15:37:21.785Z,5.72
2023-10-30T15:39:49.227Z,5.60
2023-10-30T15:42:16.662Z,5.37
2023-10-30T15:44:44.396Z,4.60
2023-10-30T15:47:24.282Z,4.57
2023-10-30T15:49:53.595Z,4.60
2023-10-30T15:57:25.851Z,4.82
2023-10-30T15:59:53.233Z,3.85
2023-10-30T16:02:20.911Z,3.53
2023-10-30T16:07:20.088Z,3.28
2023-10-30T16:09:49.456Z,3.25
2023-10-30T16:12:17.477Z,3.22
2023-10-30T16:14:44.990Z,3.95
2023-10-30T16:19:43.249Z,5.25
2023-10-30T16:22:10.817Z,4.10
2023-10-30T16:24:38.243Z,4.62
2023-10-30T16:27:06.434Z,4.43
2023-10-30T16:29:33.804Z,3.80
2023-10-30T16:32:01.232Z,3.62
2023-10-30T16:34:29.400Z,4.35
2023-10-30T16:36:56.861Z,3.72
2023-10-30T16:39:24.546Z,3.97
2023-10-30T16:41:52.220Z,3.97
2023-10-30T16:44:19.786Z,2.67
2023-10-30T16:46:47.241Z,4.03
2023-10-30T16:49:15.823Z,4.03
2023-10-30T16:51:43.448Z,4.40
2023-10-30T16:54:10.884Z,4.68
2023-10-30T16:56:38.670Z,4.97
2023-10-30T16:59:06.143Z,4.62
2023-10-30T17:01:33.954Z,4.65
2023-10-30T17:04:01.776Z,4.50
2023-10-30T17:06:29.462Z,4.07
2023-10-30T17:08:56.841Z,4.80
2023-10-30T17:11:24.524Z,5.50
2023-10-30T17:13:52.138Z,6.82
2023-10-30T17:16:19.686Z,6.80
2023-10-30T17:18:47.380Z,7.45
2023-10-30T17:21:15.146Z,8.60
2023-10-30T17:23:42.532Z,8.90
2023-10-30T17:26:10.209Z,7.53
2023-10-30T17:28:37.985Z,7.55
2023-10-30T17:31:05.775Z,7.80
2023-10-30T17:33:33.467Z,10.25
2023-10-30T17:36:01.419Z,9.80
2023-10-30T17:38:28.867Z,10.15
2023-10-30T17:40:56.617Z,8.75
2023-10-30T17:43:24.080Z,8.60
2023-10-30T17:45:52.170Z,7.47
2023-10-30T17:48:19.866Z,6.47
2023-10-30T17:50:47.266Z,5.65
2023-10-30T17:53:14.679Z,6.30
2023-10-30T17:55:42.449Z,5.28
2023-10-30T17:58:13.141Z,5.43
2023-10-30T18:00:40.644Z,6.05
2023-10-30T18:03:08.413Z,5.53
2023-10-30T18:05:36.128Z,6.03
2023-10-30T18:08:03.666Z,6.78
2023-10-30T18:10:31.444Z,5.70
2023-10-30T18:12:59.139Z,6.03
2023-10-30T18:15:26.550Z,6.20
2023-10-30T18:17:54.963Z,6.22
2023-10-30T18:20:22.418Z,5.85
2023-10-30T18:22:49.938Z,6.78
2023-10-30T18:25:17.892Z,6.93
2023-10-30T18:27:45.284Z,8.68
2023-10-30T18:30:13.277Z,15.82
2023-10-30T18:32:41.150Z,24.33
2023-10-30T18:35:08.806Z,24.10
2023-10-30T18:37:36.333Z,20.65
2023-10-30T18:40:04.944Z,20.50
2023-10-30T18:42:33.430Z,18.77
2023-10-30T18:45:02.543Z,17.45
2023-10-30T18:47:31.640Z,16.27
2023-10-30T18:49:59.139Z,22.00
2023-10-30T18:52:26.834Z,22.05
2023-10-30T18:54:54.623Z,21.75
2023-10-30T18:57:22.394Z,21.98
2023-10-30T18:59:50.629Z,20.08
2023-10-30T19:02:18.896Z,18.98
2023-10-30T19:04:47.835Z,17.75
2023-10-30T19:07:15.481Z,15.73
2023-10-30T19:09:43.248Z,14.48
2023-10-30T19:12:11.314Z,12.90
2023-10-30T19:14:38.754Z,11.52
2023-10-30T19:17:06.457Z,11.57
2023-10-30T19:19:33.888Z,9.23
2023-10-30T19:22:01.329Z,11.12
2023-10-30T19:24:29.034Z,8.20
2023-10-30T19:26:56.506Z,7.28
2023-10-30T19:29:23.902Z,7.47
2023-10-30T19:31:51.770Z,7.45
2023-10-30T19:34:19.286Z,7.30
2023-10-30T19:36:47.686Z,7.68
2023-10-30T19:39:16.395Z,9.10
2023-10-30T19:41:43.797Z,9.55
2023-10-30T19:44:11.630Z,10.45
2023-10-30T19:46:41.311Z,10.88
2023-10-30T19:49:09.497Z,12.15
2023-10-30T19:51:42.532Z,14.82
2023-10-30T19:54:12.488Z,19.92
2023-10-30T19:56:40.019Z,17.15
2023-10-30T19:59:07.662Z,16.37
2023-10-30T20:01:36.042Z,12.02
2023-10-30T20:04:03.962Z,11.50
2023-10-30T20:06:33.154Z,10.50
2023-10-30T20:09:00.696Z,9.50
2023-10-30T20:11:28.402Z,8.80
2023-10-30T20:13:57.272Z,7.50
2023-10-30T20:16:25.945Z,9.80
2023-10-30T20:18:53.740Z,15.07
2023-10-30T20:21:21.197Z,11.02
2023-10-30T20:23:48.597Z,10.50
2023-10-30T20:26:20.329Z,8.25
2023-10-30T20:28:47.931Z,8.50
2023-10-30T20:31:15.726Z,6.62
2023-10-30T20:33:43.485Z,6.43
2023-10-30T20:36:10.942Z,7.30
2023-10-30T20:38:38.787Z,6.15
2023-10-30T20:41:08.017Z,6.40
2023-10-30T20:43:35.460Z,6.95
2023-10-30T20:46:04.603Z,6.18
2023-10-30T20:48:31.986Z,5.50
2023-10-30T20:50:59.421Z,5.22
2023-10-30T20:53:27.177Z,6.03
2023-10-30T20:55:54.855Z,4.93
2023-10-30T20:58:22.253Z,5.25
2023-10-30T21:00:49.954Z,5.10
2023-10-30T21:03:17.877Z,5.62
2023-10-30T21:05:45.621Z,5.07
2023-10-30T21:08:13.378Z,5.30
2023-10-30T21:10:43.608Z,5.15
2023-10-30T21:13:11.016Z,5.70
2023-10-30T21:15:38.751Z,6.70
2023-10-30T21:18:06.347Z,5.43
2023-10-30T21:20:33.818Z,4.65
2023-10-30T21:23:04.288Z,4.87
2023-10-30T21:25:34.814Z,4.82
2023-10-30T21:28:02.597Z,4.70
2023-10-30T21:30:30.064Z,4.15
2023-10-30T21:32:57.561Z,5.30
2023-10-30T21:35:25.314Z,4.55
2023-10-30T21:37:52.877Z,5.03
2023-10-30T21:40:20.735Z,4.87
2023-10-30T21:42:49.443Z,4.37
2023-10-30T21:45:16.953Z,5.10
2023-10-30T21:47:44.398Z,4.93
2023-10-30T21:50:12.222Z,4.70
2023-10-30T21:52:39.891Z,4.90
2023-10-30T21:55:07.888Z,5.18
2023-10-30T21:57:35.586Z,5.25
2023-10-30T22:00:03.436Z,5.68
2023-10-30T22:02:39.285Z,6.50
2023-10-30T22:05:08.675Z,6.28
2023-10-30T22:07:36.247Z,5.87
2023-10-30T22:10:03.832Z,6.20
2023-10-30T22:12:32.169Z,6.00
2023-10-30T22:15:00.847Z,6.07
2023-10-30T22:17:28.444Z,4.75
2023-10-30T22:19:58.895Z,5.18
2023-10-30T22:22:26.481Z,5.32
2023-10-30T22:24:53.921Z,5.12
2023-10-30T22:27:21.582Z,5.55
2023-10-30T22:29:48.984Z,5.12
2023-10-30T22:32:16.357Z,4.85
2023-10-30T22:34:44.075Z,5.70
2023-10-30T22:37:11.469Z,5.43
2023-10-30T22:39:38.985Z,6.32
2023-10-30T22:42:06.899Z,5.87
2023-10-30T22:44:34.292Z,5.05
2023-10-30T22:47:01.674Z,5.20
2023-10-30T22:49:29.354Z,5.43
2023-10-30T22:51:56.768Z,4.60
2023-10-30T22:54:24.203Z,4.55
2023-10-30T22:56:51.845Z,5.43
2023-10-30T22:59:19.880Z,5.18
2023-10-30T23:01:47.318Z,4.50
2023-10-30T23:04:15.031Z,4.78
2023-10-30T23:06:42.476Z,5.18
2023-10-30T23:09:09.837Z,4.40
2023-10-30T23:11:37.539Z,4.87
2023-10-30T23:14:05.037Z,4.85
2023-10-30T23:16:32.512Z,5.32
2023-10-30T23:19:00.644Z,5.00
2023-10-30T23:21:28.095Z,5.87
2023-10-30T23:23:55.466Z,5.05
2023-10-30T23:26:23.154Z,5.30
2023-10-30T23:28:50.578Z,5.28
2023-10-30T23:31:17.993Z,5.55
2023-10-30T23:33:45.789Z,5.60
2023-10-30T23:36:13.185Z,5.40
2023-10-30T23:38:40.649Z,5.53
2023-10-30T23:41:09.184Z,5.40
2023-10-30T23:43:37.064Z,5.85
2023-10-30T23:46:04.481Z,5.47
2023-10-30T23:48:32.177Z,5.12
2023-10-30T23:50:59.611Z,5.93
2023-10-30T23:53:27.071Z,5.93
2023-10-30T23:55:54.767Z,5.78
2023-10-30T23:58:22.196Z,5.47
